Tchula, Mississippi
Current Conditions -  °F | °C
As of 5:53 AM on Thursday 18 Dec 2014 (Local Time) from KGWO Reporting Station
Light Rain Light Rain  
Wind Chill: 38°   Ceiling: 5000
Heat Index: 42°   Visibility: 8mi
Dew Point: 38°   Wind: 7mph
Humidity: 85%   Direction: 100°E
Pressure: 30.2"   Gusts: NA
Location:  33.18°N, 90.22°W
Report Text: KGWO 181153Z AUTO 10006KT 8SM -RA OVC050 06/03 A3020 RMK AO2 RAB00E18B40 SLP225 P0001 60002 70002 T00560033 10067 20056 56019
Loading
Personal Weather Stations






























Interactive Weather Map New forecast layout! Learn more

10-Day Weather Forecast

Advertisements
Track Severe Weather on mobile